createdAt,value
2023-05-17T00:02:04.323Z,9.90
2023-05-17T00:04:33.422Z,6.18
2023-05-17T00:07:01.114Z,7.20
2023-05-17T00:09:28.706Z,7.30
2023-05-17T00:11:56.969Z,7.85
2023-05-17T00:14:24.651Z,6.22
2023-05-17T00:16:52.791Z,7.05
2023-05-17T00:19:20.689Z,7.18
2023-05-17T00:21:48.357Z,7.78
2023-05-17T00:24:16.127Z,5.82
2023-05-17T00:26:43.762Z,6.10
2023-05-17T00:29:11.264Z,5.55
2023-05-17T00:31:38.754Z,5.57
2023-05-17T00:34:06.403Z,14.82
2023-05-17T00:36:33.927Z,9.73
2023-05-17T00:39:02.900Z,6.53
2023-05-17T00:41:30.560Z,8.55
2023-05-17T00:43:58.149Z,5.95
2023-05-17T00:46:25.901Z,7.20
2023-05-17T00:48:54.215Z,5.55
2023-05-17T00:51:22.856Z,6.50
2023-05-17T00:53:50.931Z,7.85
2023-05-17T00:56:18.823Z,4.70
2023-05-17T00:58:46.818Z,5.63
2023-05-17T01:01:14.721Z,5.10
2023-05-17T01:03:46.547Z,5.80
2023-05-17T01:06:15.170Z,4.57
2023-05-17T01:08:43.689Z,5.53
2023-05-17T01:11:16.505Z,5.70
2023-05-17T01:13:50.200Z,9.60
2023-05-17T01:16:17.962Z,5.28
2023-05-17T01:19:01.653Z,5.97
2023-05-17T01:21:43.230Z,4.88
2023-05-17T01:24:48.983Z,8.93
2023-05-17T01:27:18.989Z,9.07
2023-05-17T01:29:49.761Z,6.70
2023-05-17T01:32:18.185Z,7.38
2023-05-17T01:34:45.711Z,7.72
2023-05-17T01:37:13.554Z,6.18
2023-05-17T01:39:41.747Z,10.98
2023-05-17T01:42:31.253Z,7.65
2023-05-17T01:45:40.559Z,9.85
2023-05-17T01:48:44.296Z,8.23
2023-05-17T01:51:19.047Z,8.80
2023-05-17T01:53:57.326Z,5.63
2023-05-17T01:56:33.729Z,9.48
2023-05-17T01:59:06.789Z,10.07
2023-05-17T02:01:36.566Z,5.95
2023-05-17T02:06:32.889Z,8.23
2023-05-17T02:09:02.937Z,10.18
2023-05-17T02:11:30.912Z,7.75
2023-05-17T02:13:59.042Z,7.10
2023-05-17T02:16:26.573Z,10.38
2023-05-17T02:18:54.221Z,6.20
2023-05-17T02:21:21.852Z,7.78
2023-05-17T02:23:49.381Z,7.03
2023-05-17T02:26:19.712Z,5.53
2023-05-17T02:28:47.276Z,11.82
2023-05-17T02:31:14.878Z,8.35
2023-05-17T02:33:43.131Z,8.38
2023-05-17T02:36:11.222Z,5.85
2023-05-17T02:38:39.516Z,6.72
2023-05-17T02:41:07.037Z,5.50
2023-05-17T02:43:34.742Z,10.10
2023-05-17T02:48:32.316Z,8.32
2023-05-17T02:50:59.850Z,7.60
2023-05-17T02:53:27.526Z,7.40
2023-05-17T02:55:58.191Z,7.38
2023-05-17T02:58:26.020Z,6.38
2023-05-17T03:00:53.699Z,8.98
2023-05-17T03:03:21.418Z,12.98
2023-05-17T03:05:49.181Z,7.35
2023-05-17T03:08:16.784Z,8.45
2023-05-17T03:10:45.678Z,8.80
2023-05-17T03:13:13.442Z,7.05
2023-05-17T03:15:41.320Z,10.68
2023-05-17T03:18:08.997Z,6.05
2023-05-17T03:23:07.055Z,7.05
2023-05-17T03:25:39.789Z,6.10
2023-05-17T03:28:07.310Z,6.63
2023-05-17T03:30:35.143Z,6.57
2023-05-17T03:33:05.534Z,9.82
2023-05-17T03:35:33.460Z,9.73
2023-05-17T03:38:00.997Z,6.43
2023-05-17T03:40:28.977Z,6.95
2023-05-17T03:42:57.799Z,5.40
2023-05-17T03:45:27.612Z,8.47
2023-05-17T03:47:55.454Z,5.03
2023-05-17T03:50:23.825Z,11.35
2023-05-17T03:52:51.286Z,7.80
2023-05-17T03:55:19.656Z,9.60
2023-05-17T03:57:47.495Z,14.52
2023-05-17T04:00:21.280Z,8.02
2023-05-17T04:02:49.343Z,5.45
2023-05-17T04:05:19.372Z,7.88
2023-05-17T04:07:48.600Z,12.43
2023-05-17T04:10:16.331Z,11.40
2023-05-17T04:12:46.226Z,5.70
2023-05-17T04:15:13.863Z,8.95
2023-05-17T04:17:43.089Z,5.95
2023-05-17T04:20:11.489Z,9.27
2023-05-17T04:22:39.681Z,6.57
2023-05-17T04:25:08.487Z,8.57
2023-05-17T04:27:37.401Z,5.43
2023-05-17T04:30:08.072Z,7.13
2023-05-17T04:32:36.021Z,5.05
2023-05-17T04:35:04.763Z,10.00
2023-05-17T04:37:32.862Z,10.20
2023-05-17T04:40:07.998Z,9.85
2023-05-17T04:42:35.823Z,7.55
2023-05-17T04:45:05.538Z,9.15
2023-05-17T04:47:33.186Z,10.93
2023-05-17T04:50:01.473Z,7.63
2023-05-17T04:52:29.231Z,4.53
2023-05-17T04:54:57.064Z,4.03
2023-05-17T04:57:24.634Z,4.15
2023-05-17T04:59:58.709Z,4.97
2023-05-17T05:02:27.307Z,5.03
2023-05-17T05:04:54.965Z,4.53
2023-05-17T05:07:22.597Z,5.97
2023-05-17T05:09:50.551Z,7.13
2023-05-17T05:12:19.415Z,3.90
2023-05-17T05:14:48.174Z,2.30
2023-05-17T05:17:15.872Z,3.25
2023-05-17T05:19:43.545Z,2.42
2023-05-17T05:22:11.661Z,3.92
2023-05-17T05:24:40.199Z,7.27
2023-05-17T05:27:08.041Z,6.72
2023-05-17T05:29:36.861Z,8.53
2023-05-17T05:32:04.667Z,3.92
2023-05-17T05:34:38.978Z,2.95
2023-05-17T05:37:06.733Z,2.97
2023-05-17T05:39:34.794Z,5.55
2023-05-17T05:42:04.335Z,3.33
2023-05-17T05:44:32.792Z,2.67
2023-05-17T05:47:00.935Z,3.40
2023-05-17T05:49:28.567Z,5.45
2023-05-17T05:51:56.415Z,2.70
2023-05-17T05:56:54.621Z,8.18
2023-05-17T05:59:22.339Z,5.53
2023-05-17T06:01:49.966Z,6.05
2023-05-17T06:04:17.512Z,23.30
2023-05-17T06:06:45.183Z,3.47
2023-05-17T06:09:12.927Z,5.05
2023-05-17T06:11:40.544Z,7.15
2023-05-17T06:14:08.509Z,7.03
2023-05-17T06:16:36.459Z,4.22
2023-05-17T06:19:04.520Z,2.42
2023-05-17T06:21:32.455Z,3.60
2023-05-17T06:23:59.982Z,7.70
2023-05-17T06:26:27.654Z,5.78
2023-05-17T06:28:55.151Z,6.53
2023-05-17T06:31:22.724Z,6.60
2023-05-17T06:33:50.392Z,6.97
2023-05-17T06:36:17.902Z,4.72
2023-05-17T06:38:45.479Z,3.83
2023-05-17T06:41:13.266Z,2.63
2023-05-17T06:43:40.930Z,4.65
2023-05-17T06:46:08.624Z,2.88
2023-05-17T06:48:36.414Z,3.00
2023-05-17T06:51:04.044Z,1.92
2023-05-17T06:53:32.220Z,4.38
2023-05-17T06:55:59.856Z,2.30
2023-05-17T06:58:27.408Z,4.47
2023-05-17T07:00:55.033Z,5.55
2023-05-17T07:03:23.001Z,6.03
2023-05-17T07:05:50.649Z,2.28
2023-05-17T07:08:18.390Z,3.28
2023-05-17T07:10:46.552Z,3.33
2023-05-17T07:13:14.189Z,4.82
2023-05-17T07:15:41.775Z,8.40
2023-05-17T07:18:11.265Z,2.85
2023-05-17T07:20:38.985Z,2.97
2023-05-17T07:23:06.730Z,3.33
2023-05-17T07:25:34.369Z,2.65
2023-05-17T07:28:01.912Z,2.53
2023-05-17T07:30:31.526Z,2.45
2023-05-17T07:32:59.625Z,1.92
2023-05-17T07:35:27.260Z,1.40
2023-05-17T07:37:55.124Z,1.63
2023-05-17T07:40:22.766Z,2.10
2023-05-17T07:42:50.651Z,3.58
2023-05-17T07:45:18.768Z,3.03
2023-05-17T07:47:46.424Z,3.95
2023-05-17T07:50:14.091Z,4.30
2023-05-17T07:52:41.793Z,6.07
2023-05-17T07:55:10.128Z,8.35
2023-05-17T07:57:38.114Z,1.70
2023-05-17T08:00:08.898Z,3.22
2023-05-17T08:02:41.349Z,2.42
2023-05-17T08:05:09.703Z,2.30
2023-05-17T08:07:37.868Z,5.82
2023-05-17T08:10:05.935Z,4.07
2023-05-17T08:12:33.856Z,5.63
2023-05-17T08:15:01.436Z,2.83
2023-05-17T08:17:29.254Z,3.45
2023-05-17T08:19:57.870Z,5.35
2023-05-17T08:22:26.504Z,8.32
2023-05-17T08:24:54.083Z,2.00
2023-05-17T08:27:21.709Z,2.15
2023-05-17T08:29:49.604Z,4.13
2023-05-17T08:32:17.285Z,3.53
2023-05-17T08:34:44.858Z,2.42
2023-05-17T08:37:12.548Z,4.10
2023-05-17T08:39:40.265Z,4.82
2023-05-17T08:42:08.409Z,3.20
2023-05-17T08:44:37.235Z,2.97
2023-05-17T08:47:07.651Z,3.75
2023-05-17T08:49:38.116Z,3.70
2023-05-17T08:52:10.212Z,2.75
2023-05-17T08:54:38.054Z,4.57
2023-05-17T08:57:07.407Z,1.67
2023-05-17T08:59:35.457Z,1.73
2023-05-17T09:02:05.768Z,2.03
2023-05-17T09:04:34.294Z,3.22
2023-05-17T09:07:02.069Z,3.08
2023-05-17T09:09:30.006Z,4.25
2023-05-17T09:11:57.563Z,6.05
2023-05-17T09:14:25.161Z,2.83
2023-05-17T09:17:00.105Z,2.78
2023-05-17T09:19:28.244Z,4.60
2023-05-17T09:21:56.148Z,2.60
2023-05-17T09:24:31.016Z,2.28
2023-05-17T09:27:03.726Z,7.82
2023-05-17T09:29:32.775Z,3.20
2023-05-17T09:32:20.997Z,4.70
2023-05-17T09:34:48.763Z,6.75
2023-05-17T09:37:17.635Z,3.38
2023-05-17T09:39:47.040Z,3.38
2023-05-17T09:42:16.864Z,1.95
2023-05-17T09:44:57.657Z,3.85
2023-05-17T09:47:29.289Z,3.65
2023-05-17T09:50:00.715Z,5.40
2023-05-17T09:52:32.363Z,3.15
2023-05-17T09:55:01.148Z,3.15
2023-05-17T09:57:37.902Z,5.93
2023-05-17T10:00:12.420Z,5.15
2023-05-17T10:02:48.327Z,2.65
2023-05-17T10:05:17.930Z,2.13
2023-05-17T10:07:48.066Z,2.80
2023-05-17T10:10:18.211Z,2.53
2023-05-17T10:12:47.455Z,2.15
2023-05-17T10:15:17.838Z,3.67
2023-05-17T10:17:46.302Z,3.38
2023-05-17T10:20:15.725Z,4.38
2023-05-17T10:22:44.062Z,7.53
2023-05-17T10:25:12.631Z,2.78
2023-05-17T10:27:41.927Z,4.57
2023-05-17T10:30:11.603Z,5.47
2023-05-17T10:32:39.933Z,4.05
2023-05-17T10:35:12.026Z,6.15
2023-05-17T10:37:41.364Z,2.33
2023-05-17T10:40:14.034Z,2.28
2023-05-17T10:42:46.940Z,3.80
2023-05-17T10:45:14.948Z,4.57
2023-05-17T10:47:43.622Z,5.50
2023-05-17T10:50:13.331Z,2.58
2023-05-17T10:52:48.916Z,2.38
2023-05-17T10:55:20.978Z,3.08
2023-05-17T10:58:16.140Z,2.60
2023-05-17T11:00:47.557Z,3.55
2023-05-17T11:03:18.568Z,4.22
2023-05-17T11:06:23.333Z,2.97
2023-05-17T11:09:13.860Z,3.40
2023-05-17T11:12:05.509Z,1.90
2023-05-17T11:14:45.644Z,2.30
2023-05-17T11:17:20.762Z,1.98
2023-05-17T11:19:55.034Z,3.95
2023-05-17T11:22:37.260Z,3.33
2023-05-17T11:25:09.294Z,5.43
2023-05-17T11:27:39.891Z,3.92
2023-05-17T11:30:31.808Z,5.70
2023-05-17T11:33:05.717Z,5.53
2023-05-17T11:35:39.575Z,2.72
2023-05-17T11:38:24.510Z,2.90
2023-05-17T11:40:56.905Z,3.60
2023-05-17T11:43:27.428Z,1.63
2023-05-17T11:46:01.724Z,5.53
2023-05-17T11:48:31.623Z,9.60
2023-05-17T11:51:01.518Z,2.83
2023-05-17T11:53:31.253Z,6.10
2023-05-17T11:56:04.181Z,2.30
2023-05-17T11:58:32.193Z,5.43
2023-05-17T12:00:59.764Z,4.35
2023-05-17T12:03:29.251Z,11.80
2023-05-17T12:06:13.253Z,3.55
2023-05-17T12:08:46.487Z,37.38
2023-05-17T12:11:18.963Z,2.55
2023-05-17T12:13:49.138Z,6.60
2023-05-17T12:16:22.611Z,6.35
2023-05-17T12:18:52.150Z,3.05
2023-05-17T12:23:52.090Z,1.60
2023-05-17T12:26:22.468Z,8.57
2023-05-17T12:28:58.168Z,4.43
2023-05-17T12:31:30.137Z,2.85
2023-05-17T12:33:59.447Z,6.55
2023-05-17T12:36:29.824Z,1.92
2023-05-17T12:38:57.821Z,10.90
2023-05-17T12:41:26.783Z,5.75
2023-05-17T12:44:06.314Z,3.80
2023-05-17T12:46:42.164Z,2.10
2023-05-17T12:49:11.968Z,3.15
2023-05-17T12:51:42.404Z,4.57
2023-05-17T12:54:10.604Z,2.53
2023-05-17T12:56:38.332Z,4.95
2023-05-17T12:59:15.462Z,3.33
2023-05-17T13:01:45.739Z,3.80
2023-05-17T13:04:15.186Z,3.25
2023-05-17T13:07:00.020Z,3.22
2023-05-17T13:09:31.043Z,2.50
2023-05-17T13:11:59.757Z,3.25
2023-05-17T13:14:46.515Z,7.38
2023-05-17T13:17:34.713Z,3.83
2023-05-17T13:20:02.457Z,5.03
2023-05-17T13:22:30.317Z,2.30
2023-05-17T13:24:57.868Z,7.63
2023-05-17T13:27:25.512Z,7.18
2023-05-17T13:29:53.268Z,3.67
2023-05-17T13:32:21.332Z,3.63
2023-05-17T13:34:48.886Z,5.18
2023-05-17T13:37:16.524Z,5.18
2023-05-17T13:39:44.133Z,7.15
2023-05-17T13:42:13.119Z,3.58
2023-05-17T13:44:40.838Z,3.22
2023-05-17T13:47:08.526Z,3.33
2023-05-17T13:49:36.350Z,4.32
2023-05-17T13:52:03.943Z,3.08
2023-05-17T13:54:31.840Z,2.95
2023-05-17T13:56:59.526Z,3.85
2023-05-17T13:59:27.640Z,4.32
2023-05-17T14:01:55.211Z,2.47
2023-05-17T14:04:22.862Z,6.25
2023-05-17T14:06:54.119Z,3.78
2023-05-17T14:09:22.683Z,2.75
2023-05-17T14:11:50.290Z,4.35
2023-05-17T14:14:17.923Z,4.35
2023-05-17T14:16:46.011Z,3.05
2023-05-17T14:19:13.624Z,3.30
2023-05-17T14:21:41.204Z,4.35
2023-05-17T14:24:08.768Z,5.30
2023-05-17T14:26:37.288Z,2.70
2023-05-17T14:29:07.977Z,5.05
2023-05-17T14:31:35.697Z,2.65
2023-05-17T14:34:04.017Z,5.78
2023-05-17T14:36:34.021Z,22.23
2023-05-17T14:39:01.788Z,4.88
2023-05-17T14:41:29.561Z,5.32
2023-05-17T14:43:57.170Z,2.95
2023-05-17T14:46:24.908Z,4.30
2023-05-17T14:48:52.628Z,2.97
2023-05-17T14:51:20.370Z,2.28
2023-05-17T14:53:48.216Z,3.08
2023-05-17T14:56:16.878Z,2.30
2023-05-17T14:58:44.602Z,8.43
2023-05-17T15:01:12.256Z,3.75
2023-05-17T15:03:39.911Z,4.07
2023-05-17T15:06:09.533Z,2.72
2023-05-17T15:08:40.766Z,5.68
2023-05-17T15:11:09.622Z,3.28
2023-05-17T15:13:38.263Z,6.30
2023-05-17T15:16:06.301Z,5.35
2023-05-17T15:18:33.960Z,2.47
2023-05-17T15:21:02.660Z,9.95
2023-05-17T15:23:30.430Z,1.95
2023-05-17T15:25:58.089Z,6.78
2023-05-17T15:28:25.797Z,8.27
2023-05-17T15:31:06.412Z,3.40
2023-05-17T15:33:34.161Z,2.13
2023-05-17T15:36:02.100Z,2.65
2023-05-17T15:38:30.031Z,2.60
2023-05-17T15:41:06.617Z,3.33
2023-05-17T15:43:35.100Z,4.03
2023-05-17T15:46:02.647Z,3.23
2023-05-17T15:48:31.105Z,6.93
2023-05-17T15:51:01.368Z,3.38
2023-05-17T15:53:30.021Z,3.45
2023-05-17T15:55:57.641Z,6.70
2023-05-17T15:58:28.068Z,6.75
2023-05-17T16:00:55.979Z,5.28
2023-05-17T16:03:23.530Z,5.97
2023-05-17T16:05:51.679Z,2.30
2023-05-17T16:08:20.449Z,4.65
2023-05-17T16:10:48.104Z,5.15
2023-05-17T16:13:16.324Z,5.10
2023-05-17T16:15:43.918Z,4.38
2023-05-17T16:18:13.815Z,4.07
2023-05-17T16:20:41.998Z,2.97
2023-05-17T16:23:09.942Z,3.88
2023-05-17T16:25:37.695Z,5.70
2023-05-17T16:28:05.402Z,5.40
2023-05-17T16:30:33.330Z,3.35
2023-05-17T16:33:01.403Z,7.15
2023-05-17T16:35:29.347Z,7.90
2023-05-17T16:37:57.034Z,3.78
2023-05-17T16:40:24.607Z,3.53
2023-05-17T16:42:52.111Z,3.90
2023-05-17T16:45:20.078Z,4.93
2023-05-17T16:47:47.682Z,2.75
2023-05-17T16:50:15.327Z,5.95
2023-05-17T16:52:42.941Z,9.63
2023-05-17T16:55:10.557Z,3.10
2023-05-17T16:57:38.415Z,5.15
2023-05-17T17:00:06.699Z,5.20
2023-05-17T17:02:34.525Z,7.18
2023-05-17T17:05:04.454Z,2.72
2023-05-17T17:07:32.683Z,7.75
2023-05-17T17:10:00.321Z,6.57
2023-05-17T17:12:27.912Z,3.10
2023-05-17T17:14:55.936Z,4.63
2023-05-17T17:17:23.491Z,3.58
2023-05-17T17:19:51.299Z,3.97
2023-05-17T17:22:18.906Z,4.53
2023-05-17T17:24:46.538Z,2.75
2023-05-17T17:27:14.214Z,6.07
2023-05-17T17:29:41.802Z,3.42
2023-05-17T17:32:09.609Z,6.68
2023-05-17T17:34:37.496Z,3.45
2023-05-17T17:37:05.498Z,4.30
2023-05-17T17:39:33.526Z,5.47
2023-05-17T17:42:01.959Z,5.97
2023-05-17T17:44:29.720Z,4.85
2023-05-17T17:46:57.254Z,6.32
2023-05-17T17:49:24.919Z,6.25
2023-05-17T17:51:52.744Z,2.83
2023-05-17T17:54:20.409Z,3.05
2023-05-17T17:56:48.012Z,5.05
2023-05-17T17:59:15.536Z,4.63
2023-05-17T18:01:43.912Z,4.30
2023-05-17T18:04:13.656Z,5.25
2023-05-17T18:06:43.801Z,4.85
2023-05-17T18:11:39.557Z,4.10
2023-05-17T18:14:08.216Z,5.88
2023-05-17T18:16:36.278Z,14.33
2023-05-17T18:19:04.003Z,4.28
2023-05-17T18:21:31.766Z,8.23
2023-05-17T18:24:00.418Z,5.78
2023-05-17T18:26:27.927Z,6.25
2023-05-17T18:28:55.485Z,7.20
2023-05-17T18:31:23.104Z,5.05
2023-05-17T18:33:50.692Z,9.55
2023-05-17T18:36:18.433Z,4.40
2023-05-17T18:38:45.971Z,6.22
2023-05-17T18:41:13.537Z,7.72
2023-05-17T18:43:41.086Z,8.30
2023-05-17T18:46:08.759Z,13.20
2023-05-17T18:48:37.057Z,8.20
2023-05-17T18:51:04.717Z,4.72
2023-05-17T18:53:32.427Z,9.75
2023-05-17T18:56:02.544Z,6.53
2023-05-17T18:58:30.277Z,7.80
2023-05-17T19:00:58.062Z,7.25
2023-05-17T19:03:25.717Z,5.88
2023-05-17T19:05:53.481Z,8.88
2023-05-17T19:08:21.142Z,9.90
2023-05-17T19:10:48.817Z,8.18
2023-05-17T19:13:16.461Z,5.40
2023-05-17T19:15:44.032Z,8.30
2023-05-17T19:18:11.672Z,6.68
2023-05-17T19:20:39.312Z,7.80
2023-05-17T19:23:06.958Z,9.35
2023-05-17T19:25:34.730Z,6.97
2023-05-17T19:28:02.383Z,9.70
2023-05-17T19:30:32.742Z,12.23
2023-05-17T19:33:01.619Z,6.65
2023-05-17T19:35:30.093Z,11.45
2023-05-17T19:37:57.697Z,10.93
2023-05-17T19:40:25.399Z,10.98
2023-05-17T19:42:52.918Z,9.52
2023-05-17T19:45:21.062Z,9.15
2023-05-17T19:47:48.890Z,8.38
2023-05-17T19:50:16.948Z,16.70
2023-05-17T19:52:44.678Z,13.63
2023-05-17T19:55:15.850Z,6.43
2023-05-17T19:57:43.504Z,8.70
2023-05-17T20:00:11.672Z,6.90
2023-05-17T20:02:40.681Z,11.15
2023-05-17T20:05:08.831Z,39.63
2023-05-17T20:07:37.891Z,16.48
2023-05-17T20:10:06.486Z,96.88
2023-05-17T20:12:34.325Z,36.80
2023-05-17T20:15:02.061Z,21.15
2023-05-17T20:17:29.806Z,12.90
2023-05-17T20:19:57.428Z,9.60
2023-05-17T20:22:25.411Z,16.70
2023-05-17T20:24:53.748Z,13.93
2023-05-17T20:27:22.261Z,11.43
2023-05-17T20:29:49.905Z,9.23
2023-05-17T20:32:17.528Z,12.40
2023-05-17T20:34:45.228Z,10.07
2023-05-17T20:37:12.878Z,9.77
2023-05-17T20:39:40.606Z,15.82
2023-05-17T20:42:08.494Z,15.55
2023-05-17T20:44:36.174Z,9.88
2023-05-17T20:47:05.803Z,11.55
2023-05-17T20:49:33.415Z,13.68
2023-05-17T20:52:03.371Z,13.27
2023-05-17T20:54:31.474Z,17.70
2023-05-17T20:56:59.978Z,22.50
2023-05-17T20:59:27.618Z,17.52
2023-05-17T21:01:56.060Z,36.13
2023-05-17T21:04:23.837Z,22.45
2023-05-17T21:06:52.369Z,22.55
2023-05-17T21:09:19.936Z,20.10
2023-05-17T21:11:47.536Z,19.38
2023-05-17T21:14:15.248Z,27.75
2023-05-17T21:16:43.175Z,19.65
2023-05-17T21:19:11.075Z,29.52
2023-05-17T21:21:38.703Z,28.02
2023-05-17T21:24:06.893Z,25.77
2023-05-17T21:26:36.324Z,24.75
2023-05-17T21:29:06.208Z,20.85
2023-05-17T21:31:34.039Z,26.05
2023-05-17T21:34:01.675Z,22.75
2023-05-17T21:36:29.513Z,22.65
2023-05-17T21:38:57.234Z,17.25
2023-05-17T21:41:24.854Z,14.70
2023-05-17T21:43:52.453Z,16.85
2023-05-17T21:46:20.073Z,20.00
2023-05-17T21:48:47.676Z,13.30
2023-05-17T21:51:15.537Z,16.65
2023-05-17T21:53:43.158Z,24.40
2023-05-17T21:56:11.503Z,20.80
2023-05-17T21:58:39.201Z,17.98
2023-05-17T22:01:07.396Z,22.38
2023-05-17T22:03:35.136Z,17.05
2023-05-17T22:06:02.913Z,18.35
2023-05-17T22:08:32.208Z,24.00
2023-05-17T22:10:59.756Z,16.38
2023-05-17T22:13:27.654Z,17.95
2023-05-17T22:15:58.853Z,19.60
2023-05-17T22:18:27.664Z,17.17
2023-05-17T22:20:55.365Z,27.92
2023-05-17T22:23:23.090Z,29.00
2023-05-17T22:25:50.771Z,19.88
2023-05-17T22:28:18.578Z,18.02
2023-05-17T22:30:46.597Z,19.48
2023-05-17T22:33:14.697Z,18.75
2023-05-17T22:35:42.245Z,17.77
2023-05-17T22:38:11.370Z,19.58
2023-05-17T22:40:38.900Z,21.15
2023-05-17T22:43:08.327Z,18.00
2023-05-17T22:48:05.881Z,18.70
2023-05-17T22:50:34.230Z,16.48
2023-05-17T22:53:01.766Z,26.70
2023-05-17T22:55:29.948Z,24.67
2023-05-17T22:57:58.162Z,15.70
2023-05-17T23:00:26.330Z,15.18
2023-05-17T23:02:54.029Z,18.30
2023-05-17T23:05:22.347Z,15.10
2023-05-17T23:07:49.887Z,16.90
2023-05-17T23:10:17.465Z,16.90
2023-05-17T23:12:45.281Z,17.05
2023-05-17T23:15:12.828Z,15.02
2023-05-17T23:17:41.277Z,12.10
2023-05-17T23:20:10.510Z,14.52
2023-05-17T23:22:39.314Z,13.25
2023-05-17T23:25:07.180Z,16.65
2023-05-17T23:27:35.783Z,13.35
2023-05-17T23:30:04.472Z,18.95
2023-05-17T23:32:32.759Z,13.82
2023-05-17T23:35:04.300Z,19.25
2023-05-17T23:37:36.270Z,15.35
2023-05-17T23:40:09.464Z,19.98
2023-05-17T23:42:37.845Z,13.45
2023-05-17T23:45:06.043Z,11.65
2023-05-17T23:47:33.934Z,20.17
2023-05-17T23:50:03.064Z,19.90
2023-05-17T23:52:32.741Z,13.52
2023-05-17T23:55:01.681Z,14.82
2023-05-17T23:57:29.767Z,22.08
2023-05-17T23:59:57.347Z,25.52
